Laguna de Pozuelos, Argentina
Current Conditions -  °F | °C
As of 8:00 PM on Wednesday 26 Nov 2014 (Local Time) from SLTJ Reporting Station
Broken Clouds Broken Clouds  
Wind Chill: 64°   Ceiling: 2500
Heat Index: 64°   Visibility: 6mi
Dew Point: 57°   Wind: 17mph
Humidity: 77%   Direction: 140°SE
Pressure: 30.06"   Gusts: NA
Location:  22.37°S, 66.02°W
Report Text: SLTJ 262300Z 14015KT 9999 BKN025 FEW030CB BKN200 18/14 Q1018
Loading
Personal Weather Stations






























Interactive Weather Map New forecast layout! Learn more

10-Day Weather Forecast

Advertisements
Track Severe Weather on mobile